createdAt,value
2022-12-16T00:01:29.822Z,17.58
2022-12-16T00:03:59.939Z,19.15
2022-12-16T00:06:32.416Z,19.45
2022-12-16T00:09:02.896Z,17.73
2022-12-16T00:11:32.116Z,17.75
2022-12-16T00:13:58.980Z,18.42
2022-12-16T00:16:25.952Z,18.98
2022-12-16T00:18:55.359Z,18.65
2022-12-16T00:21:23.197Z,19.67
2022-12-16T00:23:50.018Z,17.92
2022-12-16T00:26:21.421Z,18.50
2022-12-16T00:28:48.830Z,18.02
2022-12-16T00:31:16.113Z,19.08
2022-12-16T00:33:43.215Z,18.20
2022-12-16T00:36:14.737Z,17.67
2022-12-16T00:38:44.163Z,17.90
2022-12-16T00:41:10.984Z,18.75
2022-12-16T00:43:37.894Z,17.90
2022-12-16T00:46:05.140Z,17.75
2022-12-16T00:48:32.043Z,19.33
2022-12-16T00:50:59.030Z,17.70
2022-12-16T00:53:29.348Z,19.00
2022-12-16T00:56:05.814Z,18.02
2022-12-16T00:58:32.963Z,17.80
2022-12-16T01:01:02.442Z,19.02
2022-12-16T01:03:32.124Z,19.25
2022-12-16T01:05:59.234Z,18.13
2022-12-16T01:08:28.402Z,19.17
2022-12-16T01:10:57.230Z,19.67
2022-12-16T01:13:26.129Z,18.70
2022-12-16T01:15:53.485Z,18.40
2022-12-16T01:18:21.370Z,18.92
2022-12-16T01:20:48.296Z,18.45
2022-12-16T01:23:15.302Z,17.60
2022-12-16T01:25:44.745Z,17.52
2022-12-16T01:28:13.861Z,17.23
2022-12-16T01:30:40.776Z,18.23
2022-12-16T01:33:10.841Z,17.45
2022-12-16T01:35:55.448Z,17.40
2022-12-16T01:38:23.133Z,16.25
2022-12-16T01:40:52.228Z,17.00
2022-12-16T01:43:24.558Z,19.65
2022-12-16T01:45:55.933Z,17.80
2022-12-16T01:48:45.591Z,17.83
2022-12-16T01:51:28.178Z,17.25
2022-12-16T01:54:39.684Z,16.92
2022-12-16T01:57:13.832Z,16.67
2022-12-16T01:59:45.186Z,17.15
2022-12-16T02:02:14.211Z,16.15
2022-12-16T02:05:04.475Z,16.15
2022-12-16T02:07:33.858Z,16.02
2022-12-16T02:10:03.283Z,17.00
2022-12-16T02:12:58.127Z,16.10
2022-12-16T02:15:45.291Z,16.60
2022-12-16T02:18:36.906Z,18.08
2022-12-16T02:21:27.893Z,16.58
2022-12-16T02:24:27.206Z,14.88
2022-12-16T02:27:12.072Z,16.35
2022-12-16T02:30:25.013Z,15.52
2022-12-16T02:33:00.385Z,16.35
2022-12-16T02:35:48.489Z,15.90
2022-12-16T02:38:27.540Z,15.98
2022-12-16T02:41:11.481Z,15.43
2022-12-16T02:43:57.833Z,15.05
2022-12-16T02:46:30.114Z,14.70
2022-12-16T02:49:07.724Z,15.20
2022-12-16T02:51:38.930Z,16.38
2022-12-16T02:54:08.228Z,16.75
2022-12-16T02:56:44.154Z,16.50
2022-12-16T02:59:47.883Z,17.10
2022-12-16T03:02:43.147Z,17.30
2022-12-16T03:05:19.605Z,16.33
2022-12-16T03:07:49.034Z,16.30
2022-12-16T03:10:20.450Z,16.98
2022-12-16T03:12:47.517Z,16.58
2022-12-16T03:15:23.565Z,16.10
2022-12-16T03:17:52.888Z,14.88
2022-12-16T03:20:32.904Z,15.43
2022-12-16T03:23:04.881Z,15.70
2022-12-16T03:25:35.612Z,15.45
2022-12-16T03:28:40.301Z,16.42
2022-12-16T03:31:42.686Z,15.95
2022-12-16T03:34:31.716Z,16.95
2022-12-16T03:37:09.722Z,16.88
2022-12-16T03:39:51.168Z,16.67
2022-12-16T03:42:18.675Z,15.75
2022-12-16T03:44:49.505Z,16.55
2022-12-16T03:47:23.080Z,17.08
2022-12-16T03:49:51.097Z,17.85
2022-12-16T03:52:18.176Z,19.13
2022-12-16T03:54:44.998Z,17.88
2022-12-16T03:57:15.424Z,18.00
2022-12-16T03:59:45.210Z,16.75
2022-12-16T04:02:12.228Z,17.15
2022-12-16T04:04:39.310Z,16.80
2022-12-16T04:07:20.480Z,17.27
2022-12-16T04:09:51.474Z,18.48
2022-12-16T04:12:38.598Z,17.05
2022-12-16T04:15:25.706Z,17.90
2022-12-16T04:18:10.963Z,16.75
2022-12-16T04:21:11.448Z,16.52
2022-12-16T04:24:06.349Z,17.52
2022-12-16T04:26:54.331Z,16.53
2022-12-16T04:29:21.273Z,16.93
2022-12-16T04:31:48.934Z,17.00
2022-12-16T04:34:29.257Z,17.07
2022-12-16T04:37:20.286Z,16.40
2022-12-16T04:40:06.518Z,17.73
2022-12-16T04:42:52.159Z,17.40
2022-12-16T04:45:38.263Z,18.20
2022-12-16T04:48:24.564Z,17.50
2022-12-16T04:51:09.779Z,18.17
2022-12-16T04:53:55.083Z,16.67
2022-12-16T04:56:40.303Z,17.33
2022-12-16T04:59:28.083Z,17.70
2022-12-16T05:02:13.546Z,17.50
2022-12-16T05:04:59.263Z,17.03
2022-12-16T05:07:44.555Z,18.25
2022-12-16T05:10:29.626Z,16.47
2022-12-16T05:13:15.304Z,17.00
2022-12-16T05:16:00.582Z,17.57
2022-12-16T05:18:48.466Z,15.48
2022-12-16T05:21:33.566Z,17.50
2022-12-16T05:24:18.792Z,16.47
2022-12-16T05:27:06.767Z,18.73
2022-12-16T05:29:54.728Z,16.58
2022-12-16T05:32:45.078Z,16.30
2022-12-16T05:35:30.375Z,15.90
2022-12-16T05:38:17.871Z,16.10
2022-12-16T05:41:03.570Z,17.98
2022-12-16T05:43:48.718Z,16.98
2022-12-16T05:46:36.746Z,16.10
2022-12-16T05:49:22.364Z,15.90
2022-12-16T05:52:07.949Z,16.85
2022-12-16T05:54:53.269Z,17.50
2022-12-16T05:57:41.365Z,17.85
2022-12-16T06:00:30.819Z,18.05
2022-12-16T06:03:16.446Z,17.42
2022-12-16T06:06:06.930Z,18.10
2022-12-16T06:08:52.217Z,18.95
2022-12-16T06:11:37.946Z,18.40
2022-12-16T06:14:26.027Z,18.77
2022-12-16T06:17:14.011Z,19.23
2022-12-16T06:19:59.183Z,17.13
2022-12-16T06:22:44.416Z,17.90
2022-12-16T06:25:29.814Z,18.65
2022-12-16T06:28:15.514Z,17.80
2022-12-16T06:31:00.756Z,18.88
2022-12-16T06:33:47.115Z,18.63
2022-12-16T06:36:34.793Z,18.80
2022-12-16T06:39:20.525Z,18.50
2022-12-16T06:42:08.324Z,17.90
2022-12-16T06:44:54.106Z,18.33
2022-12-16T06:47:39.685Z,18.45
2022-12-16T06:50:29.950Z,18.35
2022-12-16T06:53:15.215Z,19.50
2022-12-16T06:56:00.841Z,18.83
2022-12-16T06:58:46.227Z,19.52
2022-12-16T07:01:31.907Z,18.65
2022-12-16T07:04:17.375Z,18.27
2022-12-16T07:07:05.262Z,19.02
2022-12-16T07:09:50.798Z,17.95
2022-12-16T07:12:36.088Z,18.85
2022-12-16T07:15:21.999Z,19.87
2022-12-16T07:18:10.103Z,20.40
2022-12-16T07:20:55.187Z,18.70
2022-12-16T07:23:40.499Z,20.63
2022-12-16T07:26:25.931Z,19.02
2022-12-16T07:29:11.585Z,19.55
2022-12-16T07:31:57.497Z,19.55
2022-12-16T07:34:49.965Z,19.38
2022-12-16T07:37:36.088Z,19.00
2022-12-16T07:40:22.510Z,19.40
2022-12-16T07:43:08.043Z,21.00
2022-12-16T07:45:58.225Z,22.40
2022-12-16T07:48:46.615Z,20.58
2022-12-16T07:51:32.170Z,19.90
2022-12-16T07:54:17.446Z,20.33
2022-12-16T07:57:02.880Z,20.30
2022-12-16T07:59:48.277Z,21.10
2022-12-16T08:02:36.147Z,20.15
2022-12-16T08:05:22.084Z,21.93
2022-12-16T08:08:07.923Z,20.50
2022-12-16T08:10:53.291Z,21.50
2022-12-16T08:13:41.257Z,20.67
2022-12-16T08:16:26.650Z,20.47
2022-12-16T08:19:12.402Z,21.00
2022-12-16T08:21:58.315Z,21.43
2022-12-16T08:24:56.119Z,22.80
2022-12-16T08:27:43.699Z,21.00
2022-12-16T08:30:30.397Z,21.65
2022-12-16T08:36:21.213Z,19.80
2022-12-16T08:39:07.129Z,19.07
2022-12-16T08:41:52.866Z,21.57
2022-12-16T08:44:42.925Z,19.60
2022-12-16T08:47:29.119Z,20.50
2022-12-16T08:50:19.043Z,20.20
2022-12-16T08:53:04.649Z,20.60
2022-12-16T08:55:50.442Z,21.03
2022-12-16T08:58:40.439Z,20.70
2022-12-16T09:01:31.961Z,20.63
2022-12-16T09:04:19.613Z,21.40
2022-12-16T09:07:06.313Z,21.40
2022-12-16T09:09:56.665Z,20.53
2022-12-16T09:12:44.593Z,21.87
2022-12-16T09:15:35.699Z,21.30
2022-12-16T09:18:23.683Z,23.77
2022-12-16T09:21:11.934Z,22.13
2022-12-16T09:23:57.814Z,24.20
2022-12-16T09:26:48.462Z,22.77
2022-12-16T09:29:43.360Z,22.30
2022-12-16T09:32:31.742Z,24.20
2022-12-16T09:35:19.721Z,24.63
2022-12-16T09:38:07.955Z,23.83
2022-12-16T09:41:01.779Z,23.47
2022-12-16T09:44:08.728Z,24.10
2022-12-16T09:47:14.642Z,23.10
2022-12-16T09:50:34.099Z,22.83
2022-12-16T09:53:25.545Z,25.87
2022-12-16T09:56:14.016Z,23.00
2022-12-16T09:59:12.097Z,23.73
2022-12-16T10:02:00.180Z,22.50
2022-12-16T10:04:48.582Z,22.87
2022-12-16T10:07:40.005Z,22.77
2022-12-16T10:10:51.608Z,22.23
2022-12-16T10:13:45.784Z,22.33
2022-12-16T10:16:58.964Z,22.17
2022-12-16T10:20:28.321Z,21.77
2022-12-16T10:23:25.087Z,21.10
2022-12-16T10:26:38.015Z,21.57
2022-12-16T10:29:38.409Z,23.70
2022-12-16T10:32:50.131Z,22.20
2022-12-16T10:35:56.200Z,21.20
2022-12-16T10:38:55.651Z,24.07
2022-12-16T10:41:46.108Z,21.40
2022-12-16T10:45:13.526Z,22.70
2022-12-16T10:48:13.473Z,21.47
2022-12-16T10:51:01.395Z,21.57
2022-12-16T10:53:46.996Z,23.17
2022-12-16T10:57:08.831Z,25.80
2022-12-16T10:59:58.860Z,22.83
2022-12-16T11:02:46.981Z,22.73
2022-12-16T11:05:49.663Z,21.20
2022-12-16T11:08:55.547Z,24.10
2022-12-16T11:11:47.207Z,21.80
2022-12-16T11:15:12.594Z,22.17
2022-12-16T11:17:56.016Z,22.13
2022-12-16T11:20:44.961Z,22.47
2022-12-16T11:23:43.509Z,21.97
2022-12-16T11:26:38.395Z,24.03
2022-12-16T11:29:36.847Z,21.80
2022-12-16T11:32:44.152Z,21.90
2022-12-16T11:35:38.352Z,23.10
2022-12-16T11:38:34.959Z,22.67
2022-12-16T11:41:24.298Z,23.83
2022-12-16T11:44:14.567Z,23.97
2022-12-16T11:47:03.626Z,25.20
2022-12-16T11:49:53.019Z,24.87
2022-12-16T11:52:41.269Z,23.90
2022-12-16T11:59:08.660Z,23.30
2022-12-16T12:02:13.961Z,26.57
2022-12-16T12:05:00.147Z,24.60
2022-12-16T12:08:00.661Z,26.50
2022-12-16T12:11:23.630Z,23.20
2022-12-16T12:14:25.118Z,26.60
2022-12-16T12:18:10.298Z,25.07
2022-12-16T12:21:17.636Z,23.63
2022-12-16T12:24:05.895Z,22.60
2022-12-16T12:26:56.551Z,23.90
2022-12-16T12:30:03.069Z,24.20
2022-12-16T12:33:22.656Z,24.20
2022-12-16T12:36:38.280Z,22.10
2022-12-16T12:39:52.420Z,22.60
2022-12-16T12:43:21.687Z,22.10
2022-12-16T12:47:06.920Z,24.07
2022-12-16T12:50:15.201Z,25.60
2022-12-16T12:53:46.218Z,25.67
2022-12-16T12:56:44.826Z,25.37
2022-12-16T13:00:08.014Z,25.80
2022-12-16T13:03:11.605Z,29.00
2022-12-16T13:05:58.216Z,26.07
2022-12-16T13:09:05.206Z,27.07
2022-12-16T13:11:53.229Z,25.87
2022-12-16T13:14:51.608Z,27.23
2022-12-16T13:17:42.440Z,27.03
2022-12-16T13:20:54.799Z,26.40
2022-12-16T13:23:53.755Z,27.07
2022-12-16T13:26:46.744Z,27.03
2022-12-16T13:29:48.355Z,27.43
2022-12-16T13:32:36.617Z,28.60
2022-12-16T13:35:36.584Z,28.10
2022-12-16T13:38:36.201Z,26.70
2022-12-16T13:41:25.856Z,25.90
2022-12-16T13:44:18.729Z,27.50
2022-12-16T13:47:08.038Z,29.30
2022-12-16T13:50:02.541Z,27.57
2022-12-16T13:52:56.638Z,28.20
2022-12-16T13:56:03.687Z,29.03
2022-12-16T13:59:01.185Z,27.57
2022-12-16T14:02:08.593Z,27.83
2022-12-16T14:05:03.547Z,29.87
2022-12-16T14:07:56.907Z,30.70
2022-12-16T14:11:01.051Z,31.37
2022-12-16T14:14:21.283Z,29.80
2022-12-16T14:17:12.760Z,32.00
2022-12-16T14:20:38.650Z,31.87
2022-12-16T14:23:57.005Z,32.07
2022-12-16T14:26:48.063Z,32.40
2022-12-16T14:29:48.307Z,31.97
2022-12-16T14:32:52.484Z,31.20
2022-12-16T14:35:47.619Z,31.30
2022-12-16T14:38:53.977Z,32.63
2022-12-16T14:41:44.434Z,31.17
2022-12-16T14:44:44.731Z,29.97
2022-12-16T14:47:43.255Z,30.17
2022-12-16T14:50:46.640Z,31.80
2022-12-16T14:53:49.255Z,31.60
2022-12-16T14:56:42.296Z,32.53
2022-12-16T14:59:38.214Z,31.87
2022-12-16T15:02:41.970Z,30.90
2022-12-16T15:05:27.712Z,31.17
2022-12-16T15:08:13.789Z,29.20
2022-12-16T15:11:02.382Z,30.77
2022-12-16T15:14:04.239Z,32.97
2022-12-16T15:16:53.594Z,30.67
2022-12-16T15:19:41.548Z,29.83
2022-12-16T15:22:36.283Z,30.67
2022-12-16T15:25:23.192Z,28.90
2022-12-16T15:28:16.158Z,32.10
2022-12-16T15:31:06.639Z,32.37
2022-12-16T15:34:00.032Z,30.27
2022-12-16T15:36:52.949Z,30.90
2022-12-16T15:39:55.042Z,30.80
2022-12-16T15:42:45.709Z,30.37
2022-12-16T15:45:39.002Z,30.77
2022-12-16T15:48:51.431Z,33.03
2022-12-16T15:51:58.597Z,32.20
2022-12-16T15:54:46.771Z,31.13
2022-12-16T15:57:53.650Z,33.03
2022-12-16T16:00:45.179Z,31.73
2022-12-16T16:03:48.191Z,33.13
2022-12-16T16:06:42.946Z,32.97
2022-12-16T16:09:51.588Z,30.93
2022-12-16T16:13:04.245Z,29.67
2022-12-16T16:15:55.815Z,33.03
2022-12-16T16:18:41.606Z,32.00
2022-12-16T16:21:31.022Z,32.07
2022-12-16T16:24:18.082Z,33.10
2022-12-16T16:27:05.678Z,30.37
2022-12-16T16:29:51.531Z,33.40
2022-12-16T16:32:37.447Z,31.80
2022-12-16T16:35:25.464Z,30.47
2022-12-16T16:38:15.348Z,31.53
2022-12-16T16:41:10.026Z,31.13
2022-12-16T16:44:02.127Z,31.90
2022-12-16T16:47:01.041Z,33.67
2022-12-16T16:50:08.383Z,33.10
2022-12-16T16:52:56.397Z,31.73
2022-12-16T16:55:43.760Z,29.87
2022-12-16T16:58:48.945Z,32.73
2022-12-16T17:01:40.486Z,32.27
2022-12-16T17:04:34.942Z,30.40
2022-12-16T17:07:23.783Z,29.77
2022-12-16T17:10:12.137Z,31.53
2022-12-16T17:13:04.451Z,32.13
2022-12-16T17:15:55.978Z,31.83
2022-12-16T17:18:46.727Z,33.07
2022-12-16T17:21:34.982Z,32.50
2022-12-16T17:24:20.960Z,30.07
2022-12-16T17:27:06.518Z,31.43
2022-12-16T17:29:52.035Z,34.03
2022-12-16T17:32:37.454Z,31.27
2022-12-16T17:35:23.399Z,33.43
2022-12-16T17:38:12.448Z,32.00
2022-12-16T17:41:02.775Z,33.27
2022-12-16T17:43:47.813Z,32.30
2022-12-16T17:46:35.693Z,33.63
2022-12-16T17:49:21.830Z,34.30
2022-12-16T17:52:09.688Z,35.90
2022-12-16T17:54:58.918Z,33.97
2022-12-16T17:57:45.011Z,36.57
2022-12-16T18:00:34.845Z,34.27
2022-12-16T18:03:25.289Z,37.40
2022-12-16T18:06:17.278Z,36.40
2022-12-16T18:09:03.472Z,35.10
2022-12-16T18:11:49.694Z,37.47
2022-12-16T18:14:36.175Z,36.60
2022-12-16T18:17:21.905Z,36.23
2022-12-16T18:20:07.776Z,36.37
2022-12-16T18:22:54.061Z,35.30
2022-12-16T18:25:42.225Z,34.63
2022-12-16T18:28:29.262Z,36.23
2022-12-16T18:31:17.041Z,36.50
2022-12-16T18:34:04.903Z,37.10
2022-12-16T18:36:55.092Z,35.90
2022-12-16T18:39:45.391Z,35.80
2022-12-16T18:42:34.177Z,37.10
2022-12-16T18:45:22.468Z,39.00
2022-12-16T18:48:09.069Z,35.47
2022-12-16T18:50:57.011Z,39.13
2022-12-16T18:53:43.293Z,38.53
2022-12-16T18:56:31.929Z,37.73
2022-12-16T18:59:18.126Z,39.20
2022-12-16T19:02:24.044Z,44.20
2022-12-16T19:05:09.860Z,39.23
2022-12-16T19:07:54.995Z,42.97
2022-12-16T19:10:42.793Z,40.07
2022-12-16T19:13:32.913Z,45.03
2022-12-16T19:16:21.588Z,41.10
2022-12-16T19:19:11.743Z,44.10
2022-12-16T19:21:59.219Z,47.20
2022-12-16T19:24:46.954Z,39.80
2022-12-16T19:27:32.374Z,40.67
2022-12-16T19:30:17.916Z,43.77
2022-12-16T19:33:08.999Z,45.47
2022-12-16T19:35:54.751Z,44.30
2022-12-16T19:38:42.180Z,44.43
2022-12-16T19:41:51.268Z,45.10
2022-12-16T19:44:39.543Z,44.30
2022-12-16T19:47:27.816Z,41.90
2022-12-16T19:50:13.400Z,45.43
2022-12-16T19:52:59.091Z,40.87
2022-12-16T19:55:44.278Z,43.67
2022-12-16T19:58:30.011Z,47.70
2022-12-16T20:01:15.416Z,46.57
2022-12-16T20:04:00.695Z,42.00
2022-12-16T20:06:46.026Z,44.10
2022-12-16T20:09:33.644Z,42.50
2022-12-16T20:12:19.077Z,41.00
2022-12-16T20:15:04.765Z,45.60
2022-12-16T20:17:51.682Z,40.30
2022-12-16T20:20:37.089Z,38.83
2022-12-16T20:23:22.696Z,40.77
2022-12-16T20:26:21.751Z,42.50
2022-12-16T20:29:09.779Z,36.60
2022-12-16T20:31:55.962Z,37.70
2022-12-16T20:34:41.977Z,36.13
2022-12-16T20:37:27.970Z,38.43
2022-12-16T20:40:16.028Z,38.60
2022-12-16T20:43:01.942Z,38.73
2022-12-16T20:45:47.749Z,41.00
2022-12-16T20:48:35.260Z,43.37
2022-12-16T20:51:26.898Z,41.87
2022-12-16T20:54:12.975Z,41.13
2022-12-16T20:56:59.154Z,41.70
2022-12-16T20:59:45.272Z,44.60
2022-12-16T21:02:34.473Z,45.70
2022-12-16T21:05:20.831Z,43.40
2022-12-16T21:08:06.639Z,43.90
2022-12-16T21:10:56.288Z,42.37
2022-12-16T21:13:45.856Z,43.97
2022-12-16T21:16:33.792Z,45.37
2022-12-16T21:19:18.955Z,45.60
2022-12-16T21:22:07.225Z,47.10
2022-12-16T21:24:53.159Z,46.53
2022-12-16T21:27:39.173Z,45.30
2022-12-16T21:30:27.855Z,44.77
2022-12-16T21:33:13.209Z,45.30
2022-12-16T21:36:01.103Z,44.47
2022-12-16T21:38:46.433Z,47.00
2022-12-16T21:41:31.902Z,46.60
2022-12-16T21:44:17.444Z,46.40
2022-12-16T21:47:02.806Z,48.60
2022-12-16T21:49:48.597Z,46.80
2022-12-16T21:52:34.147Z,44.77
2022-12-16T21:55:19.566Z,46.80
2022-12-16T21:58:04.863Z,46.23
2022-12-16T22:00:56.168Z,45.80
2022-12-16T22:03:53.222Z,42.70
2022-12-16T22:06:42.171Z,45.10
2022-12-16T22:09:31.499Z,47.63
2022-12-16T22:12:19.828Z,48.97
2022-12-16T22:15:05.640Z,48.00
2022-12-16T22:17:58.381Z,42.30
2022-12-16T22:20:45.026Z,41.63
2022-12-16T22:23:30.817Z,42.30
2022-12-16T22:26:18.526Z,44.33
2022-12-16T22:29:04.527Z,40.00
2022-12-16T22:31:50.325Z,45.37
2022-12-16T22:34:36.306Z,46.03
2022-12-16T22:37:21.727Z,43.77
2022-12-16T22:40:07.190Z,47.20
2022-12-16T22:42:55.087Z,42.93
2022-12-16T22:45:42.221Z,42.87
2022-12-16T22:48:32.322Z,38.90
2022-12-16T22:51:20.057Z,40.60
2022-12-16T22:54:09.791Z,38.87
2022-12-16T23:00:01.505Z,38.10
2022-12-16T23:02:51.869Z,37.90
2022-12-16T23:05:37.605Z,36.27
2022-12-16T23:08:23.659Z,38.00
2022-12-16T23:11:17.614Z,39.07
2022-12-16T23:14:03.693Z,36.97
2022-12-16T23:16:51.450Z,36.53
2022-12-16T23:19:41.155Z,36.63
2022-12-16T23:22:28.961Z,35.63
2022-12-16T23:25:14.652Z,35.13
2022-12-16T23:27:59.783Z,35.33
2022-12-16T23:30:45.199Z,37.90
2022-12-16T23:32:30.681Z,39.33
2022-12-16T23:33:30.453Z,39.67
2022-12-16T23:36:16.295Z,36.97
2022-12-16T23:39:01.484Z,37.80
2022-12-16T23:41:48.949Z,37.97
2022-12-16T23:44:34.762Z,36.57
2022-12-16T23:47:20.315Z,38.20
2022-12-16T23:50:07.059Z,36.80
2022-12-16T23:52:53.676Z,38.03
2022-12-16T23:55:42.190Z,37.90
2022-12-16T23:58:32.310Z,38.10
